Time;durP1;ratioP1;P1;durP2;ratioP2;P2;SDS_P1;SDS_P2;PMS_P1;PMS_P2;Temp;Humidity;BMP_temperature;BMP_pressure;BME280_temperature;BME280_humidity;BME280_pressure;Samples;Min_cycle;Max_cycle;Signal;HPM_P1;HPM_P2
2022/09/14 06:24:13;;;;;;;3.10;2.80;;;;;;;13.31;100.00;99976.91;1734484;80;21025;-88
2022/09/14 06:26:58;;;;;;;2.65;2.25;;;;;;;13.71;100.00;99984.52;1712066;81;21375;-88
2022/09/14 06:29:43;;;;;;;5.30;3.20;;;;;;;13.87;100.00;99982.19;1702007;84;20998;-88
2022/09/14 06:32:29;;;;;;;4.55;2.45;;;;;;;14.02;100.00;99973.59;1719364;82;21006;-88
2022/09/14 06:35:14;;;;;;;5.17;2.72;;;;;;;14.18;100.00;99974.79;1738212;81;21014;-89
2022/09/14 06:37:59;;;;;;;4.67;2.75;;;;;;;14.23;100.00;99985.41;1733070;80;21001;-89
2022/09/14 06:40:58;;;;;;;5.25;2.52;;;;;;;14.12;100.00;99985.68;1712405;83;21020;-89
2022/09/14 06:43:42;;;;;;;5.42;2.45;;;;;;;14.02;100.00;99991.44;1732837;82;21005;-90
2022/09/14 06:46:31;;;;;;;2.80;2.30;;;;;;;13.89;100.00;99993.67;1738843;82;21041;-89
2022/09/14 06:49:19;;;;;;;3.40;2.10;;;;;;;13.84;100.00;99992.44;1741659;82;21458;-90
2022/09/14 06:52:04;;;;;;;2.77;2.50;;;;;;;13.89;100.00;99989.56;1742489;82;21025;-89
2022/09/14 06:54:48;;;;;;;3.62;2.33;;;;;;;14.07;100.00;99991.31;1734130;81;21052;-89
2022/09/14 06:57:33;;;;;;;3.58;2.60;;;;;;;14.23;100.00;99986.78;1736722;81;21041;-89
2022/09/14 07:00:18;;;;;;;2.65;1.92;;;;;;;14.44;100.00;99986.50;1731301;82;21010;-88
2022/09/14 07:03:03;;;;;;;2.33;1.92;;;;;;;14.57;100.00;99986.17;1741054;81;21593;-88
2022/09/14 07:05:47;;;;;;;3.00;2.20;;;;;;;14.60;100.00;99980.84;1742312;82;21018;-88
2022/09/14 07:08:35;;;;;;;3.72;1.95;;;;;;;14.76;100.00;99990.86;1735798;82;21014;-88
2022/09/14 07:11:24;;;;;;;2.72;2.22;;;;;;;14.97;100.00;99980.06;1734162;82;20998;-88
2022/09/14 07:14:10;;;;;;;2.30;1.82;;;;;;;14.98;100.00;99979.49;1725317;82;21874;-88
2022/09/14 07:16:54;;;;;;;2.50;1.82;;;;;;;15.04;100.00;99985.11;1724779;81;21235;-88
2022/09/14 07:19:39;;;;;;;2.67;2.05;;;;;;;15.17;100.00;99986.90;1740677;82;20976;-89
2022/09/14 07:22:26;;;;;;;2.22;1.90;;;;;;;15.30;100.00;99978.82;1735189;81;20972;-87
2022/09/14 07:25:10;;;;;;;2.17;1.77;;;;;;;15.46;100.00;99981.35;1741966;82;21749;-89
2022/09/14 07:27:56;;;;;;;2.20;1.80;;;;;;;15.55;100.00;99975.83;1716677;82;21044;-89
2022/09/14 07:30:40;;;;;;;2.35;1.98;;;;;;;15.48;100.00;99979.89;1719991;81;21048;-88
2022/09/14 07:33:25;;;;;;;4.10;2.08;;;;;;;15.38;100.00;99976.09;1725889;82;21058;-89
2022/09/14 07:36:10;;;;;;;2.62;1.85;;;;;;;15.30;100.00;99975.50;1737617;82;21872;-88
2022/09/14 07:38:55;;;;;;;2.30;1.67;;;;;;;15.28;100.00;99975.00;1739835;81;21059;-89
2022/09/14 07:41:40;;;;;;;3.12;1.98;;;;;;;15.32;100.00;99975.98;1744042;81;21015;-87
2022/09/14 07:44:24;;;;;;;2.75;1.57;;;;;;;15.35;100.00;99972.58;1734178;81;21503;-88
2022/09/14 07:47:09;;;;;;;1.72;1.25;;;;;;;15.39;100.00;99974.94;1743780;82;21003;-88
2022/09/14 07:49:54;;;;;;;2.12;1.22;;;;;;;15.37;100.00;99975.83;1736895;82;21533;-89
2022/09/14 07:52:39;;;;;;;3.37;1.45;;;;;;;15.35;100.00;99973.96;1741793;81;21471;-88
2022/09/14 07:55:24;;;;;;;2.22;1.70;;;;;;;15.38;100.00;99977.47;1737781;81;21055;-88
2022/09/14 07:58:08;;;;;;;2.40;1.62;;;;;;;15.55;100.00;99964.81;1744353;82;21040;-89
2022/09/14 08:00:58;;;;;;;2.10;1.62;;;;;;;15.69;100.00;99965.47;1742866;81;21061;-88
2022/09/14 08:03:43;;;;;;;2.20;1.50;;;;;;;15.75;100.00;99966.12;1738064;82;20951;-88
2022/09/14 08:06:29;;;;;;;1.75;1.37;;;;;;;15.72;100.00;99963.45;1739703;81;21019;-88
2022/09/14 08:09:13;;;;;;;3.50;1.50;;;;;;;15.71;100.00;99958.30;1736911;81;21083;-88
2022/09/14 08:11:59;;;;;;;2.05;1.22;;;;;;;15.73;100.00;99955.45;1733858;82;21869;-88
2022/09/14 08:14:44;;;;;;;1.77;1.20;;;;;;;15.82;100.00;99954.05;1738474;82;20981;-88
2022/09/14 08:17:29;;;;;;;1.30;1.15;;;;;;;15.82;100.00;99950.72;1738438;82;21008;-88
2022/09/14 08:20:15;;;;;;;1.37;0.80;;;;;;;15.87;100.00;99958.02;1734173;82;21380;-89
2022/09/14 08:23:00;;;;;;;2.62;1.15;;;;;;;15.94;100.00;99949.25;1740824;81;21040;-89
2022/09/14 08:25:46;;;;;;;1.67;1.30;;;;;;;15.95;100.00;99952.23;1734247;81;21019;-89
2022/09/14 08:28:31;;;;;;;2.05;1.12;;;;;;;15.86;100.00;99946.19;1731734;82;21065;-88
2022/09/14 08:31:18;;;;;;;1.10;0.78;;;;;;;15.81;100.00;99938.67;1734887;82;20926;-88
2022/09/14 08:34:03;;;;;;;1.15;0.90;;;;;;;15.85;100.00;99942.38;1735469;81;20974;-87
2022/09/14 08:36:48;;;;;;;0.93;0.80;;;;;;;15.95;100.00;99938.46;1722912;81;21018;-87
2022/09/14 08:39:32;;;;;;;1.17;0.88;;;;;;;16.08;100.00;99931.96;1734256;81;21021;-87
2022/09/14 08:42:18;;;;;;;1.32;0.95;;;;;;;16.25;100.00;99931.91;1717028;81;21001;-88
2022/09/14 08:45:04;;;;;;;1.32;1.20;;;;;;;16.33;100.00;99937.95;1710283;81;21064;-88
2022/09/14 08:47:49;;;;;;;1.12;1.00;;;;;;;16.39;100.00;99932.25;1707937;84;20970;-87
2022/09/14 08:50:34;;;;;;;1.10;1.00;;;;;;;16.34;100.00;99934.61;1707725;84;21053;-87
2022/09/14 08:53:21;;;;;;;1.87;1.07;;;;;;;16.33;100.00;99933.01;1712356;82;21539;-88
2022/09/14 08:56:29;;;;;;;1.67;1.45;;;;;;;16.36;100.00;99937.05;1720832;82;21033;-88
2022/09/14 08:59:41;;;;;;;1.90;1.20;;;;;;;16.51;100.00;99937.30;1717744;82;21921;-88
2022/09/14 09:02:47;;;;;;;1.42;0.90;;;;;;;16.81;100.00;99932.39;1729390;81;21532;-88
2022/09/14 09:05:42;;;;;;;1.60;0.60;;;;;;;17.06;100.00;99929.22;1735382;82;21001;-88
2022/09/14 09:08:44;;;;;;;0.75;0.68;;;;;;;17.25;100.00;99919.91;1728130;81;20986;-88
2022/09/14 09:11:39;;;;;;;0.72;0.70;;;;;;;17.31;100.00;99906.69;1723640;82;21621;-89
2022/09/14 09:14:35;;;;;;;0.55;0.55;;;;;;;17.38;100.00;99913.86;1733732;82;21005;-88
